Time;durP1;ratioP1;P1;durP2;ratioP2;P2;SDS_P1;SDS_P2;PMS_P1;PMS_P2;Temp;Humidity;BMP_temperature;BMP_pressure;BME280_temperature;BME280_humidity;BME280_pressure;Samples;Min_cycle;Max_cycle;Signal;HPM_P1;HPM_P2
2021/08/05 00:00:56;;;;;;;17.48;14.68;;;19.90;94.40;;;;;;5051253;28;20040;-71
2021/08/05 00:03:23;;;;;;;18.30;14.50;;;20.00;94.20;;;;;;5048517;28;20055;-68
2021/08/05 00:05:49;;;;;;;17.45;14.02;;;19.90;94.10;;;;;;5057593;28;20033;-72
2021/08/05 00:08:16;;;;;;;16.17;14.32;;;20.00;94.10;;;;;;5047258;28;20022;-73
2021/08/05 00:10:42;;;;;;;16.85;15.23;;;20.00;94.10;;;;;;5044482;28;20470;-72
2021/08/05 00:13:09;;;;;;;14.95;13.40;;;20.00;94.00;;;;;;5045173;28;20041;-71
2021/08/05 00:15:35;;;;;;;13.90;12.38;;;20.00;93.60;;;;;;5040161;28;20473;-72
2021/08/05 00:18:03;;;;;;;14.57;13.07;;;20.00;93.80;;;;;;5040866;28;20029;-72
2021/08/05 00:20:30;;;;;;;20.25;14.30;;;20.00;93.70;;;;;;5042107;28;20725;-70
2021/08/05 00:22:56;;;;;;;19.65;15.48;;;20.00;93.90;;;;;;5040167;28;20056;-72
2021/08/05 00:25:23;;;;;;;17.95;15.80;;;20.00;93.90;;;;;;5040822;28;20028;-72
2021/08/05 00:27:49;;;;;;;18.85;14.90;;;20.00;94.10;;;;;;5042125;28;20034;-72
2021/08/05 00:30:16;;;;;;;17.05;15.25;;;20.00;94.30;;;;;;5041145;28;20405;-71
2021/08/05 00:32:42;;;;;;;17.60;15.70;;;20.00;94.40;;;;;;5039588;28;20022;-71
2021/08/05 00:35:10;;;;;;;19.08;16.98;;;20.00;94.60;;;;;;5040195;28;20052;-71
2021/08/05 00:37:37;;;;;;;19.98;17.17;;;20.00;94.90;;;;;;5040132;28;20045;-72
2021/08/05 00:40:04;;;;;;;18.73;16.45;;;20.00;95.10;;;;;;5040599;28;20041;-71
2021/08/05 00:42:32;;;;;;;15.80;13.27;;;20.00;94.80;;;;;;5039754;28;20041;-72
2021/08/05 00:44:58;;;;;;;14.13;11.43;;;20.00;94.10;;;;;;5040449;28;20524;-68
2021/08/05 00:47:28;;;;;;;12.57;11.18;;;19.90;93.50;;;;;;5041227;28;20045;-72
2021/08/05 00:49:58;;;;;;;12.05;10.82;;;19.80;93.40;;;;;;5040903;28;20044;-71
2021/08/05 00:52:25;;;;;;;11.45;9.02;;;19.80;93.40;;;;;;5037535;28;20100;-72
2021/08/05 00:54:52;;;;;;;10.68;9.02;;;19.80;92.80;;;;;;5040435;28;20038;-72
2021/08/05 00:57:19;;;;;;;14.07;9.25;;;19.80;92.70;;;;;;5038117;28;20049;-68
2021/08/05 00:59:45;;;;;;;12.43;10.30;;;19.80;92.90;;;;;;5039565;28;20041;-73
2021/08/05 01:02:19;;;;;;;14.40;12.07;;;19.70;93.30;;;;;;5040113;28;20033;-72
2021/08/05 01:04:50;;;;;;;13.45;12.05;;;19.70;93.50;;;;;;5040558;28;20040;-72
2021/08/05 01:07:35;;;;;;;11.60;10.40;;;19.70;93.50;;;;;;5041599;28;20025;-70
2021/08/05 01:10:12;;;;;;;13.13;11.18;;;19.70;93.50;;;;;;5039888;28;20029;-72
2021/08/05 01:12:52;;;;;;;13.52;11.15;;;19.70;93.70;;;;;;5038334;28;20029;-71
2021/08/05 01:15:24;;;;;;;15.45;13.45;;;19.70;93.60;;;;;;5039441;28;20486;-71
2021/08/05 01:18:01;;;;;;;18.88;16.52;;;19.70;94.10;;;;;;5041120;28;20061;-72
2021/08/05 01:20:31;;;;;;;25.10;22.50;;;19.70;95.00;;;;;;5044585;28;20029;-72
2021/08/05 01:23:10;;;;;;;27.05;21.83;;;19.70;96.20;;;;;;5043178;28;20489;-71
2021/08/05 01:25:43;;;;;;;20.52;18.20;;;19.70;96.30;;;;;;5042311;28;20390;-72
2021/08/05 01:28:11;;;;;;;18.88;16.88;;;19.70;95.30;;;;;;5044396;28;20037;-72
2021/08/05 01:30:42;;;;;;;17.10;15.18;;;19.70;95.20;;;;;;5044006;28;20504;-69
2021/08/05 01:33:10;;;;;;;17.27;15.15;;;19.70;95.20;;;;;;5043043;28;20034;-69
2021/08/05 01:35:38;;;;;;;18.13;15.15;;;19.70;95.10;;;;;;5041835;28;20046;-71
2021/08/05 01:38:05;;;;;;;17.17;14.90;;;19.70;95.00;;;;;;5043420;28;20040;-72
2021/08/05 01:40:32;;;;;;;19.13;14.75;;;19.70;94.90;;;;;;5044580;28;20041;-72
2021/08/05 01:43:00;;;;;;;17.55;15.45;;;19.70;94.80;;;;;;5042981;28;20500;-71
2021/08/05 01:45:28;;;;;;;17.60;14.18;;;19.70;94.80;;;;;;5043960;28;20487;-69
2021/08/05 01:47:57;;;;;;;20.70;15.10;;;19.70;95.00;;;;;;5043765;28;20048;-70
2021/08/05 01:50:24;;;;;;;18.73;14.18;;;19.70;95.00;;;;;;5041994;28;20045;-70
2021/08/05 01:52:52;;;;;;;15.73;13.45;;;19.70;95.10;;;;;;5043524;28;20373;-71
2021/08/05 01:55:19;;;;;;;18.25;14.80;;;19.60;95.10;;;;;;5043396;28;20500;-68
2021/08/05 01:57:46;;;;;;;19.50;15.05;;;19.60;95.20;;;;;;5042354;28;20038;-72
2021/08/05 02:00:13;;;;;;;19.38;15.85;;;19.60;95.30;;;;;;5041410;28;20028;-71
2021/08/05 02:02:41;;;;;;;19.10;16.38;;;19.60;95.50;;;;;;5043765;28;20045;-72
2021/08/05 02:05:15;;;;;;;19.80;17.75;;;19.60;95.60;;;;;;5042449;28;20520;-71
2021/08/05 02:07:48;;;;;;;20.92;17.10;;;19.60;95.70;;;;;;5041516;28;20044;-71
2021/08/05 02:10:27;;;;;;;19.85;15.93;;;19.60;95.70;;;;;;5041258;28;20029;-70
2021/08/05 02:13:17;;;;;;;19.90;15.93;;;19.50;95.60;;;;;;5041552;28;20048;-72
2021/08/05 02:15:53;;;;;;;17.80;16.00;;;19.50;95.40;;;;;;5040591;28;20055;-70
2021/08/05 02:18:22;;;;;;;23.38;19.33;;;19.50;95.50;;;;;;5043134;28;20370;-71
2021/08/05 02:20:49;;;;;;;22.13;16.35;;;19.50;96.10;;;;;;5042264;28;20033;-69
2021/08/05 02:23:17;;;;;;;15.70;14.10;;;19.50;95.60;;;;;;5040516;28;20049;-71
2021/08/05 02:25:49;;;;;;;18.58;14.52;;;19.50;95.10;;;;;;5042495;28;20033;-72
2021/08/05 02:28:17;;;;;;;21.15;14.95;;;19.50;94.90;;;;;;5042664;28;20048;-66
2021/08/05 02:30:44;;;;;;;17.70;14.43;;;19.50;95.00;;;;;;5042547;28;20378;-72
2021/08/05 02:33:13;;;;;;;19.10;15.52;;;19.50;95.30;;;;;;5042505;28;20029;-72
2021/08/05 02:35:43;;;;;;;16.55;14.52;;;19.50;95.40;;;;;;5042353;28;20045;-70
2021/08/05 02:38:10;;;;;;;16.52;13.50;;;19.50;95.40;;;;;;5042458;28;20080;-71
2021/08/05 02:40:38;;;;;;;16.15;14.27;;;19.50;95.10;;;;;;5041998;28;20032;-71
2021/08/05 02:43:08;;;;;;;17.98;13.60;;;19.50;95.20;;;;;;5041670;28;20033;-72
2021/08/05 02:45:36;;;;;;;16.55;13.35;;;19.50;95.20;;;;;;5042766;28;20037;-71
2021/08/05 02:48:05;;;;;;;20.33;14.50;;;19.50;95.00;;;;;;5032043;28;20049;-71
2021/08/05 02:50:33;;;;;;;17.67;14.82;;;19.50;95.10;;;;;;5026535;28;20047;-72
2021/08/05 02:53:02;;;;;;;18.45;16.20;;;19.50;95.30;;;;;;5041657;28;20021;-71
2021/08/05 02:55:29;;;;;;;17.38;14.50;;;19.40;95.50;;;;;;5041642;28;20040;-69
2021/08/05 02:57:56;;;;;;;19.70;15.10;;;19.40;95.80;;;;;;5028126;28;20048;-70
2021/08/05 03:00:23;;;;;;;19.42;16.25;;;19.40;95.90;;;;;;5041960;28;20025;-72
2021/08/05 03:02:50;;;;;;;19.25;15.07;;;19.30;96.00;;;;;;5042153;28;20393;-70
2021/08/05 03:05:18;;;;;;;17.15;15.35;;;19.30;95.80;;;;;;5043280;28;20032;-72
2021/08/05 03:07:45;;;;;;;20.85;16.25;;;19.30;96.00;;;;;;5041592;28;20056;-71
2021/08/05 03:10:15;;;;;;;18.92;15.80;;;19.20;96.30;;;;;;5041783;28;20033;-70
2021/08/05 03:12:42;;;;;;;17.13;15.30;;;19.20;96.40;;;;;;5041481;28;20505;-71
2021/08/05 03:15:09;;;;;;;18.85;15.70;;;19.20;96.40;;;;;;5040853;28;20043;-72
2021/08/05 03:17:36;;;;;;;15.20;12.55;;;19.10;96.40;;;;;;5042996;28;20520;-69
2021/08/05 03:20:04;;;;;;;15.35;12.13;;;19.00;96.00;;;;;;5040904;28;20532;-71
2021/08/05 03:22:31;;;;;;;16.75;11.80;;;18.90;96.20;;;;;;5041687;28;20025;-70
2021/08/05 03:24:57;;;;;;;11.55;10.35;;;19.00;95.90;;;;;;5042819;28;20440;-71
2021/08/05 03:27:42;;;;;;;15.10;11.82;;;18.90;95.70;;;;;;5041231;28;20044;-72
2021/08/05 03:30:10;;;;;;;15.25;11.05;;;18.90;95.90;;;;;;5041655;28;20041;-71
2021/08/05 03:32:36;;;;;;;15.05;11.55;;;18.90;95.90;;;;;;5042773;28;20041;-70
2021/08/05 03:35:04;;;;;;;15.75;12.25;;;18.80;96.20;;;;;;5039419;28;20060;-68
2021/08/05 03:37:31;;;;;;;14.05;12.55;;;18.80;96.30;;;;;;5041416;28;20464;-71
2021/08/05 03:39:57;;;;;;;17.35;15.55;;;18.80;96.40;;;;;;5042273;28;20025;-71
2021/08/05 03:42:24;;;;;;;19.33;14.93;;;18.90;96.50;;;;;;5041327;28;20037;-71
2021/08/05 03:44:51;;;;;;;18.73;14.75;;;18.90;96.70;;;;;;5041353;28;20358;-71
2021/08/05 03:47:18;;;;;;;17.48;15.43;;;18.80;96.40;;;;;;5042710;28;20028;-71
2021/08/05 03:49:45;;;;;;;19.17;14.82;;;18.90;96.40;;;;;;5039806;28;20038;-72
2021/08/05 03:52:11;;;;;;;17.13;13.65;;;18.80;96.20;;;;;;5033975;28;20485;-70
2021/08/05 03:54:38;;;;;;;15.45;13.68;;;18.80;96.80;;;;;;5032970;28;20034;-71
2021/08/05 03:57:05;;;;;;;19.25;14.98;;;18.70;96.70;;;;;;5032630;28;20033;-71
2021/08/05 03:59:32;;;;;;;17.77;14.85;;;18.80;96.50;;;;;;5032617;28;20049;-71
2021/08/05 04:01:58;;;;;;;19.73;14.10;;;18.80;96.60;;;;;;5032407;28;20057;-71
2021/08/05 04:04:25;;;;;;;19.23;14.77;;;18.80;96.60;;;;;;5033198;28;20453;-71
2021/08/05 04:06:54;;;;;;;17.33;15.05;;;18.80;96.70;;;;;;5032707;28;20033;-72
2021/08/05 04:09:22;;;;;;;;;;;18.80;96.70;;;;;;5032815;28;20485;-71
2021/08/05 04:11:48;;;;;;;19.13;16.40;;;18.70;96.90;;;;;;5032178;28;19909;-72
2021/08/05 04:14:15;;;;;;;21.05;18.25;;;18.80;96.90;;;;;;5032911;28;20052;-72
2021/08/05 04:16:41;;;;;;;17.15;14.95;;;18.70;96.90;;;;;;5032204;28;20042;-72
2021/08/05 04:19:08;;;;;;;14.93;12.75;;;18.60;96.60;;;;;;5032423;28;20029;-72
2021/08/05 04:21:34;;;;;;;16.00;13.05;;;18.60;96.00;;;;;;5031499;28;20029;-71
2021/08/05 04:24:01;;;;;;;13.63;11.75;;;18.40;95.90;;;;;;5030922;28;20037;-66
2021/08/05 04:26:27;;;;;;;13.35;10.80;;;18.30;95.70;;;;;;5032487;28;20386;-70
2021/08/05 04:28:54;;;;;;;12.90;10.73;;;18.20;95.70;;;;;;5032100;28;20048;-71
2021/08/05 04:31:21;;;;;;;13.60;12.15;;;18.20;95.90;;;;;;5032556;28;20040;-70
2021/08/05 04:33:47;;;;;;;17.95;13.75;;;18.30;95.80;;;;;;5032103;28;20041;-71
2021/08/05 04:36:13;;;;;;;17.23;15.43;;;18.30;95.90;;;;;;5032297;28;20386;-71
2021/08/05 04:38:40;;;;;;;19.88;14.77;;;18.30;96.20;;;;;;5030524;28;20064;-67
2021/08/05 04:41:06;;;;;;;15.73;13.38;;;18.30;96.40;;;;;;5032148;28;20113;-71
2021/08/05 04:43:33;;;;;;;19.05;14.77;;;18.30;96.30;;;;;;5032431;28;20048;-71
2021/08/05 04:46:00;;;;;;;15.88;13.45;;;18.30;96.30;;;;;;5030930;28;20041;-71
2021/08/05 04:48:27;;;;;;;16.70;14.70;;;18.30;96.40;;;;;;5031655;28;20034;-70
2021/08/05 04:50:54;;;;;;;19.50;15.73;;;18.30;96.60;;;;;;5031910;28;20045;-71
2021/08/05 04:53:20;;;;;;;18.08;15.18;;;18.40;96.60;;;;;;5036040;28;20037;-72
2021/08/05 04:55:47;;;;;;;19.73;15.85;;;18.40;96.30;;;;;;5035503;28;20061;-71
2021/08/05 04:58:13;;;;;;;20.40;17.35;;;18.40;96.40;;;;;;5036477;28;20041;-71
2021/08/05 05:00:42;;;;;;;19.67;16.40;;;18.40;96.30;;;;;;5035769;28;20045;-72
2021/08/05 05:03:09;;;;;;;17.23;15.38;;;18.50;96.30;;;;;;5036043;28;20040;-70
2021/08/05 05:05:37;;;;;;;19.58;17.42;;;18.50;96.10;;;;;;5035933;28;20038;-71
2021/08/05 05:08:19;;;;;;;18.98;15.65;;;18.50;96.30;;;;;;5034495;28;20033;-65
2021/08/05 05:10:47;;;;;;;16.80;14.48;;;18.50;96.10;;;;;;5035889;28;20468;-71
2021/08/05 05:13:13;;;;;;;19.00;16.73;;;18.50;96.20;;;;;;5035349;28;20076;-71
2021/08/05 05:15:40;;;;;;;19.95;16.42;;;18.50;96.20;;;;;;5035782;28;20040;-72
2021/08/05 05:18:08;;;;;;;20.02;17.23;;;18.50;96.30;;;;;;5035552;28;20386;-72
2021/08/05 05:20:35;;;;;;;20.17;15.35;;;18.50;96.60;;;;;;5035289;28;20060;-60
2021/08/05 05:23:03;;;;;;;20.70;16.77;;;18.50;96.70;;;;;;5043466;28;20029;-71
2021/08/05 05:25:29;;;;;;;18.48;15.75;;;18.50;96.80;;;;;;5035428;28;20048;-71
2021/08/05 05:27:56;;;;;;;16.23;13.85;;;18.60;96.70;;;;;;5034594;28;20060;-72
2021/08/05 05:30:23;;;;;;;17.50;15.18;;;18.60;96.40;;;;;;5035589;28;20038;-71
2021/08/05 05:32:49;;;;;;;24.02;16.30;;;18.60;96.40;;;;;;5035139;28;20048;-71
2021/08/05 05:35:18;;;;;;;17.80;14.57;;;18.60;96.30;;;;;;5035365;28;20060;-71
2021/08/05 05:37:47;;;;;;;16.13;13.70;;;18.70;96.10;;;;;;5034990;28;20045;-71
2021/08/05 05:40:14;;;;;;;15.68;13.98;;;18.80;95.70;;;;;;5035467;28;20155;-71
2021/08/05 05:42:42;;;;;;;19.38;15.77;;;18.80;95.30;;;;;;5034909;28;20041;-70
2021/08/05 05:45:11;;;;;;;19.20;15.77;;;18.90;95.30;;;;;;5035091;28;20393;-71
2021/08/05 05:47:37;;;;;;;19.60;15.13;;;18.90;95.40;;;;;;5034744;28;20037;-70
2021/08/05 05:50:05;;;;;;;21.13;16.52;;;18.90;95.80;;;;;;5035266;28;20037;-72
2021/08/05 05:52:32;;;;;;;19.85;17.77;;;18.90;95.90;;;;;;5034928;28;20040;-71
2021/08/05 05:54:58;;;;;;;23.60;18.50;;;18.90;96.20;;;;;;5033769;28;20393;-71
2021/08/05 05:57:25;;;;;;;19.30;16.52;;;18.90;96.70;;;;;;5034863;28;20046;-71
2021/08/05 05:59:51;;;;;;;18.23;15.38;;;18.80;96.20;;;;;;5034665;28;20068;-71
2021/08/05 06:02:17;;;;;;;19.85;15.82;;;18.90;96.00;;;;;;5034374;28;20048;-70
2021/08/05 06:04:44;;;;;;;20.77;17.25;;;19.00;95.70;;;;;;5034702;28;20041;-71
2021/08/05 06:07:10;;;;;;;21.58;17.25;;;19.00;95.90;;;;;;5034559;28;20033;-71
2021/08/05 06:09:37;;;;;;;20.05;17.73;;;19.00;95.90;;;;;;5034979;28;20386;-60
2021/08/05 06:12:03;;;;;;;21.92;18.95;;;19.00;96.00;;;;;;5034687;28;20058;-71
2021/08/05 06:14:30;;;;;;;20.30;17.70;;;19.10;95.70;;;;;;5034476;28;20029;-71
2021/08/05 06:16:56;;;;;;;21.60;17.05;;;19.10;95.80;;;;;;5034453;28;20049;-69
2021/08/05 06:19:23;;;;;;;20.08;17.08;;;19.10;96.00;;;;;;5016936;28;20049;-72
2021/08/05 06:21:49;;;;;;;23.88;18.05;;;19.20;95.90;;;;;;5034753;28;20033;-65
2021/08/05 06:24:16;;;;;;;21.60;16.50;;;19.30;95.90;;;;;;5034207;28;20042;-70
2021/08/05 06:26:42;;;;;;;21.45;15.65;;;19.70;94.70;;;;;;5034848;28;20037;-74
2021/08/05 06:29:10;;;;;;;27.40;15.75;;;20.40;91.80;;;;;;5034470;28;20053;-74
2021/08/05 06:31:36;;;;;;;143.63;99.70;;;20.50;91.50;;;;;;5035089;28;20144;-76
2021/08/05 06:34:04;;;;;;;32.88;27.52;;;20.50;91.10;;;;;;5034460;28;20053;-73
2021/08/05 06:36:32;;;;;;;128.77;99.05;;;20.40;91.40;;;;;;5034598;28;20037;-76
2021/08/05 06:38:58;;;;;;;70.13;51.85;;;20.30;91.40;;;;;;5034077;28;20045;-76
2021/08/05 06:41:25;;;;;;;40.75;32.10;;;20.30;91.70;;;;;;5034235;28;20025;-76
2021/08/05 06:43:55;;;;;;;24.45;19.50;;;20.40;91.50;;;;;;5033013;28;20060;-63
2021/08/05 06:46:25;;;;;;;19.10;16.65;;;20.40;91.60;;;;;;5034228;28;20036;-76
2021/08/05 06:48:51;;;;;;;22.33;16.63;;;20.50;91.40;;;;;;5031676;28;20044;-72
2021/08/05 06:51:18;;;;;;;16.77;14.88;;;20.60;91.00;;;;;;5032168;28;20025;-71
2021/08/05 06:53:44;;;;;;;19.67;14.95;;;20.70;90.90;;;;;;5031964;28;20033;-73
2021/08/05 06:56:11;;;;;;;18.35;15.18;;;20.70;90.80;;;;;;5032313;28;20072;-71
2021/08/05 06:58:37;;;;;;;17.38;14.52;;;20.80;90.40;;;;;;5032887;28;20041;-72
2021/08/05 07:01:04;;;;;;;18.02;14.85;;;20.80;90.50;;;;;;5033203;28;20394;-74
2021/08/05 07:03:30;;;;;;;17.70;15.80;;;20.70;90.50;;;;;;5034729;28;21026;-80
2021/08/05 07:05:57;;;;;;;16.95;14.98;;;20.60;91.00;;;;;;5038282;28;20025;-70
2021/08/05 07:08:24;;;;;;;16.20;14.50;;;20.60;90.80;;;;;;5033542;28;20060;-69
2021/08/05 07:10:50;;;;;;;18.55;13.93;;;20.70;90.40;;;;;;5033382;28;20025;-69
2021/08/05 07:13:16;;;;;;;20.75;16.35;;;20.90;89.70;;;;;;5033203;28;20090;-70
2021/08/05 07:15:43;;;;;;;19.48;14.73;;;20.90;90.40;;;;;;5032385;28;20033;-71
2021/08/05 07:18:10;;;;;;;17.95;14.10;;;21.20;90.20;;;;;;5033589;28;20037;-71
2021/08/05 07:20:36;;;;;;;23.55;15.52;;;21.40;89.00;;;;;;5033676;28;20056;-71
2021/08/05 07:23:03;;;;;;;18.25;14.13;;;21.40;88.00;;;;;;5033368;28;20505;-71
2021/08/05 07:25:29;;;;;;;20.85;16.38;;;21.30;86.90;;;;;;5033397;28;20034;-62
2021/08/05 07:27:56;;;;;;;21.95;17.58;;;21.20;88.10;;;;;;5032554;28;20041;-71
2021/08/05 07:30:22;;;;;;;18.48;15.50;;;21.00;90.40;;;;;;5033432;28;20037;-70
2021/08/05 07:32:49;;;;;;;21.55;17.42;;;21.00;90.40;;;;;;5033218;28;20033;-70
2021/08/05 07:35:16;;;;;;;22.88;17.15;;;21.20;90.10;;;;;;5033295;28;20041;-71
2021/08/05 07:37:42;;;;;;;21.00;15.18;;;21.40;89.70;;;;;;5032885;28;20037;-56
2021/08/05 07:40:09;;;;;;;22.45;19.20;;;21.70;88.80;;;;;;5033079;28;20048;-70
2021/08/05 07:42:36;;;;;;;20.83;17.15;;;21.90;87.40;;;;;;5032898;28;20382;-70
2021/08/05 07:45:03;;;;;;;20.15;17.85;;;21.90;86.50;;;;;;5032965;28;20066;-71
2021/08/05 07:47:30;;;;;;;18.70;16.60;;;21.80;86.90;;;;;;5032711;28;20034;-70
2021/08/05 07:49:56;;;;;;;18.77;16.40;;;21.80;87.10;;;;;;5031258;28;20029;-70
2021/08/05 07:52:23;;;;;;;18.95;16.50;;;22.10;85.90;;;;;;5032913;28;20060;-69
2021/08/05 07:54:49;;;;;;;16.67;14.90;;;22.00;84.10;;;;;;5032490;28;20377;-69
2021/08/05 07:57:16;;;;;;;15.38;13.77;;;21.90;84.80;;;;;;5032631;28;20046;-70
2021/08/05 07:59:45;;;;;;;17.23;14.20;;;21.90;82.70;;;;;;5032425;28;20481;-70
2021/08/05 08:02:13;;;;;;;15.43;12.98;;;21.70;83.60;;;;;;5032938;28;20033;-70
2021/08/05 08:04:41;;;;;;;15.25;12.15;;;21.90;83.10;;;;;;5032605;28;20030;-70
2021/08/05 08:07:07;;;;;;;15.05;11.52;;;21.90;81.20;;;;;;5031271;28;20033;-69
2021/08/05 08:09:34;;;;;;;14.00;10.90;;;21.90;82.20;;;;;;5032234;28;20037;-70
2021/08/05 08:12:00;;;;;;;14.10;10.75;;;22.00;82.50;;;;;;5032372;28;20041;-70
2021/08/05 08:14:27;;;;;;;12.63;10.57;;;22.30;81.60;;;;;;5032128;28;20045;-72
2021/08/05 08:16:54;;;;;;;14.85;10.00;;;22.40;80.50;;;;;;5032473;28;20046;-71
2021/08/05 08:19:21;;;;;;;16.77;11.10;;;22.60;79.90;;;;;;5032336;28;20041;-71
2021/08/05 08:21:47;;;;;;;12.93;10.30;;;22.60;78.60;;;;;;5032506;28;20059;-71
2021/08/05 08:24:14;;;;;;;16.40;11.30;;;22.60;77.30;;;;;;5032449;28;20470;-58
2021/08/05 08:26:40;;;;;;;12.30;9.68;;;22.60;76.80;;;;;;5032557;28;20033;-72
2021/08/05 08:29:08;;;;;;;12.00;9.15;;;22.50;76.50;;;;;;5031625;28;20045;-71
2021/08/05 08:31:34;;;;;;;13.10;9.30;;;22.30;76.90;;;;;;5032393;28;20037;-72
2021/08/05 08:34:01;;;;;;;14.00;8.80;;;22.30;75.80;;;;;;5014702;28;20049;-71
2021/08/05 08:36:29;;;;;;;9.82;7.90;;;22.30;76.00;;;;;;5031963;28;20046;-71
2021/08/05 08:38:58;;;;;;;9.48;7.30;;;22.40;76.30;;;;;;5032016;28;20064;-71
2021/08/05 08:41:25;;;;;;;15.45;7.90;;;22.40;75.30;;;;;;5032107;28;20351;-72
2021/08/05 08:43:52;;;;;;;7.22;5.88;;;22.40;75.20;;;;;;5031029;28;20038;-71
2021/08/05 08:46:22;;;;;;;10.52;6.28;;;22.60;74.10;;;;;;5032250;28;20410;-70
2021/08/05 08:48:52;;;;;;;9.70;7.90;;;22.60;73.20;;;;;;5031933;28;20033;-71
2021/08/05 08:51:20;;;;;;;11.25;7.70;;;22.70;73.60;;;;;;5031770;28;20052;-71
2021/08/05 08:53:51;;;;;;;12.48;9.30;;;22.80;72.70;;;;;;5032416;28;20033;-63
2021/08/05 08:56:21;;;;;;;9.85;7.70;;;23.00;72.60;;;;;;5031905;28;20052;-72
2021/08/05 08:58:48;;;;;;;9.80;6.63;;;22.90;71.40;;;;;;5032382;28;20366;-70
2021/08/05 09:01:16;;;;;;;12.32;7.85;;;23.00;72.50;;;;;;5035909;28;20052;-75
2021/08/05 09:03:42;;;;;;;9.88;8.07;;;23.20;72.60;;;;;;5049092;28;20036;-72
2021/08/05 09:06:08;;;;;;;11.45;8.02;;;23.20;73.20;;;;;;5049676;28;20029;-72
2021/08/05 09:08:40;;;;;;;12.10;7.95;;;23.20;73.70;;;;;;5051281;28;20041;-72
2021/08/05 09:11:07;;;;;;;10.98;8.90;;;23.20;73.60;;;;;;5052233;28;20056;-72
2021/08/05 09:13:34;;;;;;;10.13;7.43;;;23.20;73.40;;;;;;5051366;28;20055;-72
2021/08/05 09:16:00;;;;;;;9.75;7.97;;;23.20;73.90;;;;;;5051872;28;20040;-72
2021/08/05 09:18:34;;;;;;;10.30;9.05;;;23.20;73.20;;;;;;5051360;28;20148;-73
2021/08/05 09:21:27;;;;;;;8.75;7.13;;;23.20;73.10;;;;;;5050249;28;20040;-73
2021/08/05 09:23:56;;;;;;;10.38;7.43;;;23.40;73.40;;;;;;5051275;28;20037;-71
2021/08/05 09:26:33;;;;;;;8.55;6.55;;;23.50;72.10;;;;;;5051604;28;20051;-72
2021/08/05 09:29:12;;;;;;;8.68;6.03;;;23.60;70.80;;;;;;5051269;28;20033;-72
2021/08/05 09:31:50;;;;;;;9.13;7.10;;;23.70;70.40;;;;;;5051804;28;20052;-73
2021/08/05 09:34:20;;;;;;;10.30;7.10;;;23.90;69.20;;;;;;5050097;28;20049;-74
2021/08/05 09:36:50;;;;;;;10.35;7.90;;;23.80;68.30;;;;;;5051045;28;20029;-74
2021/08/05 09:39:22;;;;;;;9.53;6.17;;;23.90;67.20;;;;;;5053936;28;20044;-72
2021/08/05 09:42:01;;;;;;;9.68;5.47;;;23.90;67.10;;;;;;5055452;28;20381;-67
2021/08/05 09:44:45;;;;;;;5.53;4.20;;;24.00;66.60;;;;;;5054917;28;20473;-71
2021/08/05 09:47:14;;;;;;;6.93;4.20;;;24.10;63.50;;;;;;5055380;28;20512;-72
2021/08/05 09:49:47;;;;;;;5.45;3.38;;;24.30;62.20;;;;;;5054665;28;20389;-77
2021/08/05 09:52:16;;;;;;;4.65;2.63;;;24.50;60.10;;;;;;5054779;28;20441;-74
2021/08/05 09:54:47;;;;;;;3.33;2.42;;;24.50;58.40;;;;;;5055040;28;20028;-71
2021/08/05 09:57:23;;;;;;;7.07;2.42;;;24.50;58.40;;;;;;5055076;28;20037;-72
2021/08/05 10:00:01;;;;;;;4.57;1.83;;;24.60;54.90;;;;;;5054586;28;20040;-68
2021/08/05 10:02:40;;;;;;;3.60;2.00;;;24.70;55.40;;;;;;5055309;28;20048;-72
2021/08/05 10:05:13;;;;;;;5.07;2.50;;;24.90;54.80;;;;;;5054032;28;20064;-72
2021/08/05 10:07:54;;;;;;;5.18;2.78;;;25.00;55.10;;;;;;5053547;28;20381;-72
2021/08/05 10:10:27;;;;;;;5.70;2.75;;;25.00;54.40;;;;;;5054645;28;20029;-71
2021/08/05 10:12:58;;;;;;;5.70;3.17;;;25.00;55.20;;;;;;5054087;28;20029;-70
2021/08/05 10:15:26;;;;;;;4.75;2.60;;;25.10;56.10;;;;;;5054747;28;20041;-71
2021/08/05 10:17:55;;;;;;;4.65;2.50;;;25.10;54.00;;;;;;5054993;28;20075;-71
2021/08/05 10:20:23;;;;;;;4.45;2.53;;;25.10;54.60;;;;;;5053991;28;20040;-72
2021/08/05 10:22:51;;;;;;;6.40;2.40;;;25.20;54.80;;;;;;5054591;28;20033;-60
2021/08/05 10:25:22;;;;;;;5.10;2.15;;;25.30;54.10;;;;;;5054354;28;20045;-69
2021/08/05 10:27:49;;;;;;;4.78;2.00;;;25.40;52.50;;;;;;5054148;28;20045;-71
2021/08/05 10:30:17;;;;;;;5.85;2.08;;;25.50;51.70;;;;;;5054886;28;20036;-69
2021/08/05 10:32:45;;;;;;;4.25;1.88;;;25.50;49.00;;;;;;5054357;28;20378;-69
2021/08/05 10:35:13;;;;;;;3.28;1.63;;;25.50;49.70;;;;;;5054477;28;20052;-70
2021/08/05 10:37:41;;;;;;;2.28;1.67;;;25.60;49.30;;;;;;5053788;28;20041;-69
2021/08/05 10:40:10;;;;;;;3.08;1.85;;;25.70;48.10;;;;;;5054633;28;20036;-69
2021/08/05 10:42:37;;;;;;;3.00;1.83;;;25.80;48.60;;;;;;5053773;28;20033;-71
2021/08/05 10:45:04;;;;;;;6.43;1.88;;;25.80;47.50;;;;;;5054454;28;20033;-70
2021/08/05 10:47:31;;;;;;;3.88;2.20;;;25.80;48.30;;;;;;5054126;28;20033;-71
2021/08/05 10:50:03;;;;;;;4.82;2.25;;;25.90;49.70;;;;;;5053283;28;20029;-72
2021/08/05 10:52:36;;;;;;;4.90;1.70;;;25.90;49.60;;;;;;5054144;28;20029;-73
2021/08/05 10:55:16;;;;;;;3.35;1.50;;;25.90;49.50;;;;;;5032877;28;20042;-74
2021/08/05 10:58:06;;;;;;;2.20;1.45;;;26.00;46.10;;;;;;5033613;28;20045;-70
2021/08/05 11:00:52;;;;;;;3.20;1.85;;;26.10;45.80;;;;;;5045416;28;20033;-65
2021/08/05 11:03:31;;;;;;;4.22;1.65;;;26.10;45.90;;;;;;5051425;28;20057;-65
2021/08/05 11:05:59;;;;;;;3.90;2.10;;;26.10;45.60;;;;;;5048820;28;20385;-63
2021/08/05 11:08:27;;;;;;;5.43;3.10;;;26.10;46.50;;;;;;5032107;28;20036;-72
2021/08/05 11:11:22;;;;;;;3.03;1.75;;;26.10;44.70;;;;;;5035686;28;20381;-69
2021/08/05 11:14:00;;;;;;;4.30;2.20;;;26.30;44.10;;;;;;5044115;28;20025;-68
2021/08/05 11:17:02;;;;;;;3.05;1.65;;;26.30;44.10;;;;;;5052675;28;20036;-69
2021/08/05 11:19:33;;;;;;;4.38;1.50;;;26.40;42.40;;;;;;5053399;28;20045;-76
2021/08/05 11:22:34;;;;;;;2.03;1.35;;;26.50;41.90;;;;;;5052682;28;20048;-74
2021/08/05 11:25:00;;;;;;;;;;;26.60;41.90;;;;;;5053794;28;20032;-69
2021/08/05 11:27:26;;;;;;;2.65;1.65;;;26.60;42.70;;;;;;5052776;28;19908;-65
2021/08/05 11:29:53;;;;;;;2.72;1.45;;;26.70;42.60;;;;;;5053054;28;20048;-67
2021/08/05 11:32:23;;;;;;;1.73;1.20;;;26.80;42.10;;;;;;5053718;28;20499;-67
2021/08/05 11:34:55;;;;;;;2.20;1.60;;;26.80;40.90;;;;;;5052906;28;20049;-67
2021/08/05 11:37:24;;;;;;;3.85;2.60;;;26.80;41.30;;;;;;5052826;28;20053;-63
2021/08/05 11:39:54;;;;;;;2.60;2.08;;;26.80;42.30;;;;;;5052933;28;20032;-65
2021/08/05 11:42:22;;;;;;;3.15;1.70;;;26.80;42.70;;;;;;5052705;28;20052;-65
2021/08/05 11:44:49;;;;;;;16.88;2.28;;;26.90;39.40;;;;;;5053100;28;20477;-65
2021/08/05 11:47:16;;;;;;;7.45;1.45;;;26.90;39.60;;;;;;5051995;28;20032;-65
2021/08/05 11:49:52;;;;;;;2.60;1.35;;;27.00;38.70;;;;;;5052486;28;20033;-65
2021/08/05 11:52:33;;;;;;;4.10;2.33;;;27.00;38.90;;;;;;5053088;28;20048;-65
2021/08/05 11:55:13;;;;;;;4.30;1.40;;;27.00;40.90;;;;;;5052589;28;20037;-65
2021/08/05 11:57:45;;;;;;;3.25;1.45;;;27.00;37.80;;;;;;5052522;28;20033;-65
2021/08/05 12:00:30;;;;;;;1.90;1.45;;;27.10;38.40;;;;;;5051937;28;20037;-64
2021/08/05 12:03:04;;;;;;;1.80;1.10;;;27.20;38.30;;;;;;5052535;28;20056;-65
2021/08/05 12:05:40;;;;;;;5.13;1.35;;;27.20;36.40;;;;;;5051607;28;20040;-65
2021/08/05 12:08:07;;;;;;;2.40;1.20;;;27.20;37.70;;;;;;5052538;28;20481;-65
2021/08/05 12:10:36;;;;;;;4.22;1.30;;;27.30;38.80;;;;;;5051811;28;20048;-61
2021/08/05 12:13:18;;;;;;;2.58;1.25;;;27.40;37.90;;;;;;5052707;28;20374;-65
2021/08/05 12:15:49;;;;;;;4.93;1.90;;;27.30;36.80;;;;;;5052431;28;20063;-66
2021/08/05 12:18:20;;;;;;;3.25;1.20;;;27.40;37.10;;;;;;5052188;28;20466;-67
2021/08/05 12:20:55;;;;;;;3.70;1.25;;;27.40;37.40;;;;;;5052830;28;20029;-68
2021/08/05 12:26:06;;;;;;;4.32;1.33;;;27.50;37.40;;;;;;5051994;28;20033;-66
2021/08/05 12:28:36;;;;;;;2.83;1.50;;;27.50;37.90;;;;;;5052729;28;20474;-67
2021/08/05 12:31:06;;;;;;;4.45;1.92;;;27.60;38.90;;;;;;5052618;28;20032;-68
2021/08/05 12:33:39;;;;;;;3.70;1.33;;;27.80;39.10;;;;;;5050535;28;20039;-67
2021/08/05 12:36:23;;;;;;;2.25;1.55;;;27.80;37.40;;;;;;5051921;28;20059;-68
2021/08/05 12:38:59;;;;;;;2.83;1.27;;;27.80;37.40;;;;;;5052423;28;20033;-68
2021/08/05 12:41:32;;;;;;;4.88;1.85;;;27.70;36.30;;;;;;5051943;28;20033;-60
2021/08/05 12:44:20;;;;;;;3.92;1.60;;;27.80;35.90;;;;;;5052245;28;20052;-67
2021/08/05 12:46:49;;;;;;;2.13;1.38;;;27.70;36.30;;;;;;5051938;28;20045;-67